sensor_id;sensor_type;location;lat;lon;timestamp;pressure;altitude;pressure_sealevel;temperature;humidity
80648;BME280;70012;0.000;0.000;2023-07-22T00:01:21;100551.88;;;12.73;71.37
80648;BME280;70012;0.000;0.000;2023-07-22T00:03:48;100552.41;;;12.70;71.87
80648;BME280;70012;0.000;0.000;2023-07-22T00:06:15;100530.88;;;12.57;71.82
80648;BME280;70012;0.000;0.000;2023-07-22T00:08:42;100547.97;;;12.64;71.77
80648;BME280;70012;0.000;0.000;2023-07-22T00:11:09;100540.25;;;12.61;72.02
80648;BME280;70012;0.000;0.000;2023-07-22T00:13:36;100558.94;;;12.64;71.91
80648;BME280;70012;0.000;0.000;2023-07-22T00:16:03;100547.34;;;12.57;72.12
80648;BME280;70012;0.000;0.000;2023-07-22T00:18:34;100532.47;;;12.47;72.07
80648;BME280;70012;0.000;0.000;2023-07-22T00:21:01;100544.56;;;12.52;72.09
80648;BME280;70012;0.000;0.000;2023-07-22T00:23:27;100555.56;;;12.52;72.41
80648;BME280;70012;0.000;0.000;2023-07-22T00:25:54;100537.34;;;12.40;72.22
80648;BME280;70012;0.000;0.000;2023-07-22T00:28:20;100557.41;;;12.46;72.29
80648;BME280;70012;0.000;0.000;2023-07-22T00:30:47;100557.38;;;12.41;72.40
80648;BME280;70012;0.000;0.000;2023-07-22T00:33:18;100547.41;;;12.29;72.49
80648;BME280;70012;0.000;0.000;2023-07-22T00:35:48;100541.59;;;12.26;72.42
80648;BME280;70012;0.000;0.000;2023-07-22T00:38:18;100556.41;;;12.25;72.48
80648;BME280;70012;0.000;0.000;2023-07-22T00:40:46;100546.72;;;12.17;72.83
80648;BME280;70012;0.000;0.000;2023-07-22T00:43:13;100557.47;;;12.24;72.86
80648;BME280;70012;0.000;0.000;2023-07-22T00:45:39;100547.50;;;12.12;72.69
80648;BME280;70012;0.000;0.000;2023-07-22T00:48:07;100553.81;;;12.13;72.90
80648;BME280;70012;0.000;0.000;2023-07-22T00:50:35;100549.94;;;12.09;73.02
80648;BME280;70012;0.000;0.000;2023-07-22T00:53:01;100555.09;;;12.05;72.85
80648;BME280;70012;0.000;0.000;2023-07-22T00:55:28;100554.53;;;12.03;73.08
80648;BME280;70012;0.000;0.000;2023-07-22T00:57:55;100551.19;;;12.01;72.86
80648;BME280;70012;0.000;0.000;2023-07-22T01:00:22;100552.06;;;12.01;72.43
80648;BME280;70012;0.000;0.000;2023-07-22T01:02:49;100561.69;;;12.04;72.83
80648;BME280;70012;0.000;0.000;2023-07-22T01:05:16;100566.03;;;12.00;72.84
80648;BME280;70012;0.000;0.000;2023-07-22T01:07:43;100550.25;;;11.90;73.17
80648;BME280;70012;0.000;0.000;2023-07-22T01:10:13;100557.69;;;11.95;72.91
80648;BME280;70012;0.000;0.000;2023-07-22T01:12:40;100551.84;;;11.86;73.14
80648;BME280;70012;0.000;0.000;2023-07-22T01:15:07;100552.59;;;11.81;73.57
80648;BME280;70012;0.000;0.000;2023-07-22T01:17:37;100547.13;;;11.81;73.42
80648;BME280;70012;0.000;0.000;2023-07-22T01:20:05;100526.16;;;11.70;73.59
80648;BME280;70012;0.000;0.000;2023-07-22T01:22:33;100542.16;;;11.78;73.42
80648;BME280;70012;0.000;0.000;2023-07-22T01:25:00;100533.88;;;11.73;73.35
80648;BME280;70012;0.000;0.000;2023-07-22T01:27:27;100534.38;;;11.70;73.49
80648;BME280;70012;0.000;0.000;2023-07-22T01:29:54;100545.66;;;11.74;73.40
80648;BME280;70012;0.000;0.000;2023-07-22T01:32:20;100549.50;;;11.73;73.26
80648;BME280;70012;0.000;0.000;2023-07-22T01:34:47;100540.63;;;11.65;73.28
80648;BME280;70012;0.000;0.000;2023-07-22T01:37:14;100545.63;;;11.68;73.26
80648;BME280;70012;0.000;0.000;2023-07-22T01:39:41;100536.44;;;11.58;73.74
80648;BME280;70012;0.000;0.000;2023-07-22T01:42:08;100536.75;;;11.61;73.04
80648;BME280;70012;0.000;0.000;2023-07-22T01:44:35;100529.28;;;11.57;73.12
80648;BME280;70012;0.000;0.000;2023-07-22T01:47:02;100543.38;;;11.65;72.95
80648;BME280;70012;0.000;0.000;2023-07-22T01:49:29;100534.00;;;11.61;72.87
80648;BME280;70012;0.000;0.000;2023-07-22T01:51:56;100524.94;;;11.61;73.28
80648;BME280;70012;0.000;0.000;2023-07-22T01:54:22;100528.56;;;11.66;73.00
80648;BME280;70012;0.000;0.000;2023-07-22T01:56:49;100528.56;;;11.66;72.96
80648;BME280;70012;0.000;0.000;2023-07-22T01:59:16;100532.09;;;11.62;72.79
80648;BME280;70012;0.000;0.000;2023-07-22T02:01:43;100531.28;;;11.61;72.82
80648;BME280;70012;0.000;0.000;2023-07-22T02:04:09;100530.19;;;11.62;72.89
80648;BME280;70012;0.000;0.000;2023-07-22T02:06:37;100510.09;;;11.57;72.70
80648;BME280;70012;0.000;0.000;2023-07-22T02:09:05;100514.50;;;11.58;72.50
80648;BME280;70012;0.000;0.000;2023-07-22T02:11:40;100518.00;;;11.53;72.48
80648;BME280;70012;0.000;0.000;2023-07-22T02:14:08;100523.47;;;11.53;72.64
80648;BME280;70012;0.000;0.000;2023-07-22T02:16:36;100517.69;;;11.49;72.46
80648;BME280;70012;0.000;0.000;2023-07-22T02:19:06;100524.25;;;11.48;72.37
80648;BME280;70012;0.000;0.000;2023-07-22T02:21:33;100501.63;;;11.36;73.15
80648;BME280;70012;0.000;0.000;2023-07-22T02:23:59;100520.38;;;11.44;72.46
80648;BME280;70012;0.000;0.000;2023-07-22T02:26:26;100517.38;;;11.46;72.14
80648;BME280;70012;0.000;0.000;2023-07-22T02:28:54;100521.50;;;11.48;71.63
80648;BME280;70012;0.000;0.000;2023-07-22T02:31:21;100515.69;;;11.45;71.50
80648;BME280;70012;0.000;0.000;2023-07-22T02:33:49;100515.53;;;11.51;71.79
80648;BME280;70012;0.000;0.000;2023-07-22T02:36:16;100507.25;;;11.46;71.71
80648;BME280;70012;0.000;0.000;2023-07-22T02:38:43;100512.19;;;11.49;71.64
80648;BME280;70012;0.000;0.000;2023-07-22T02:41:10;100512.72;;;11.46;71.37
80648;BME280;70012;0.000;0.000;2023-07-22T02:43:37;100517.94;;;11.48;71.26
80648;BME280;70012;0.000;0.000;2023-07-22T02:46:06;100499.97;;;11.35;71.11
80648;BME280;70012;0.000;0.000;2023-07-22T02:48:34;100512.09;;;11.39;70.94
80648;BME280;70012;0.000;0.000;2023-07-22T02:51:03;100525.91;;;11.49;70.86
80648;BME280;70012;0.000;0.000;2023-07-22T02:53:32;100507.41;;;11.40;71.27
80648;BME280;70012;0.000;0.000;2023-07-22T02:55:59;100511.81;;;11.41;70.97
80648;BME280;70012;0.000;0.000;2023-07-22T02:58:26;100509.34;;;11.39;71.00
80648;BME280;70012;0.000;0.000;2023-07-22T03:00:53;100528.00;;;11.42;71.42
80648;BME280;70012;0.000;0.000;2023-07-22T03:03:20;100524.19;;;11.43;71.45
80648;BME280;70012;0.000;0.000;2023-07-22T03:05:47;100536.50;;;11.41;71.35
80648;BME280;70012;0.000;0.000;2023-07-22T03:08:14;100524.13;;;11.38;71.38
80648;BME280;70012;0.000;0.000;2023-07-22T03:10:41;100512.47;;;11.26;71.94
80648;BME280;70012;0.000;0.000;2023-07-22T03:13:17;100520.75;;;11.31;71.85
80648;BME280;70012;0.000;0.000;2023-07-22T03:15:44;100531.22;;;11.34;72.02
80648;BME280;70012;0.000;0.000;2023-07-22T03:18:11;100528.72;;;11.32;71.94
80648;BME280;70012;0.000;0.000;2023-07-22T03:20:39;100529.03;;;11.36;71.77
80648;BME280;70012;0.000;0.000;2023-07-22T03:23:06;100532.34;;;11.38;72.41
80648;BME280;70012;0.000;0.000;2023-07-22T03:25:34;100524.63;;;11.35;72.29
80648;BME280;70012;0.000;0.000;2023-07-22T03:28:06;100526.03;;;11.37;72.23
80648;BME280;70012;0.000;0.000;2023-07-22T03:30:33;100509.13;;;11.24;72.35
80648;BME280;70012;0.000;0.000;2023-07-22T03:33:00;100516.97;;;11.37;72.93
80648;BME280;70012;0.000;0.000;2023-07-22T03:35:27;100505.44;;;11.35;72.74
80648;BME280;70012;0.000;0.000;2023-07-22T03:37:55;100496.13;;;11.36;72.62
80648;BME280;70012;0.000;0.000;2023-07-22T03:40:22;100506.59;;;11.39;72.74
80648;BME280;70012;0.000;0.000;2023-07-22T03:42:59;100518.22;;;11.46;73.26
80648;BME280;70012;0.000;0.000;2023-07-22T03:45:26;100513.81;;;11.45;73.02
80648;BME280;70012;0.000;0.000;2023-07-22T03:47:57;100514.34;;;11.47;73.11
80648;BME280;70012;0.000;0.000;2023-07-22T03:50:25;100518.53;;;11.50;72.99
80648;BME280;70012;0.000;0.000;2023-07-22T03:52:52;100522.13;;;11.56;72.88
80648;BME280;70012;0.000;0.000;2023-07-22T03:55:19;100515.91;;;11.60;73.06
80648;BME280;70012;0.000;0.000;2023-07-22T03:57:46;100522.28;;;11.66;72.88
80648;BME280;70012;0.000;0.000;2023-07-22T04:00:13;100521.75;;;11.69;72.91
80648;BME280;70012;0.000;0.000;2023-07-22T04:02:40;100524.53;;;11.74;73.20
80648;BME280;70012;0.000;0.000;2023-07-22T04:05:09;100520.66;;;11.70;72.94
80648;BME280;70012;0.000;0.000;2023-07-22T04:07:36;100531.19;;;11.78;73.10
80648;BME280;70012;0.000;0.000;2023-07-22T04:10:03;100519.63;;;11.76;73.01
80648;BME280;70012;0.000;0.000;2023-07-22T04:12:30;100513.34;;;11.76;72.82
80648;BME280;70012;0.000;0.000;2023-07-22T04:14:57;100519.69;;;11.81;72.92
80648;BME280;70012;0.000;0.000;2023-07-22T04:17:24;100520.00;;;11.85;72.84
80648;BME280;70012;0.000;0.000;2023-07-22T04:19:51;100532.94;;;11.90;73.03
80648;BME280;70012;0.000;0.000;2023-07-22T04:22:20;100520.31;;;11.89;73.18
80648;BME280;70012;0.000;0.000;2023-07-22T04:24:47;100522.19;;;11.83;73.14
80648;BME280;70012;0.000;0.000;2023-07-22T04:27:16;100524.16;;;11.88;72.99
80648;BME280;70012;0.000;0.000;2023-07-22T04:29:43;100530.97;;;11.85;72.96
80648;BME280;70012;0.000;0.000;2023-07-22T04:32:09;100520.81;;;11.80;72.75
80648;BME280;70012;0.000;0.000;2023-07-22T04:34:36;100539.53;;;11.89;72.93
80648;BME280;70012;0.000;0.000;2023-07-22T04:37:03;100527.91;;;11.81;73.20
80648;BME280;70012;0.000;0.000;2023-07-22T04:39:30;100526.84;;;11.82;73.13
80648;BME280;70012;0.000;0.000;2023-07-22T04:41:57;100518.56;;;11.77;73.66
80648;BME280;70012;0.000;0.000;2023-07-22T04:44:23;100543.94;;;11.90;73.13
80648;BME280;70012;0.000;0.000;2023-07-22T04:46:50;100544.50;;;11.92;72.82
80648;BME280;70012;0.000;0.000;2023-07-22T04:49:17;100541.44;;;11.88;73.11
80648;BME280;70012;0.000;0.000;2023-07-22T04:51:45;100529.63;;;11.88;73.06
80648;BME280;70012;0.000;0.000;2023-07-22T04:54:12;100540.09;;;11.91;72.64
80648;BME280;70012;0.000;0.000;2023-07-22T04:56:40;100537.94;;;11.93;72.94
80648;BME280;70012;0.000;0.000;2023-07-22T04:59:07;100548.47;;;12.01;73.28
80648;BME280;70012;0.000;0.000;2023-07-22T05:01:35;100533.94;;;12.00;72.84
80648;BME280;70012;0.000;0.000;2023-07-22T05:04:02;100532.06;;;12.06;72.43
80648;BME280;70012;0.000;0.000;2023-07-22T05:06:29;100547.34;;;12.24;72.19
80648;BME280;70012;0.000;0.000;2023-07-22T05:08:55;100528.94;;;12.25;72.15
80648;BME280;70012;0.000;0.000;2023-07-22T05:11:22;100548.31;;;12.40;71.69
80648;BME280;70012;0.000;0.000;2023-07-22T05:13:49;100536.75;;;12.38;71.88
80648;BME280;70012;0.000;0.000;2023-07-22T05:16:17;100548.94;;;12.47;71.24
80648;BME280;70012;0.000;0.000;2023-07-22T05:18:44;100540.16;;;12.51;71.77
80648;BME280;70012;0.000;0.000;2023-07-22T05:21:10;100549.31;;;12.61;73.13
80648;BME280;70012;0.000;0.000;2023-07-22T05:23:38;100550.75;;;12.69;72.73
80648;BME280;70012;0.000;0.000;2023-07-22T05:26:05;100542.25;;;12.71;72.26
80648;BME280;70012;0.000;0.000;2023-07-22T05:28:31;100561.28;;;12.82;70.55
80648;BME280;70012;0.000;0.000;2023-07-22T05:30:58;100545.94;;;12.87;69.80
80648;BME280;70012;0.000;0.000;2023-07-22T05:33:25;100528.91;;;12.90;69.21
80648;BME280;70012;0.000;0.000;2023-07-22T05:35:52;100542.75;;;13.05;68.82
80648;BME280;70012;0.000;0.000;2023-07-22T05:38:19;100537.88;;;13.18;69.54
80648;BME280;70012;0.000;0.000;2023-07-22T05:40:45;100547.31;;;13.32;67.61
80648;BME280;70012;0.000;0.000;2023-07-22T05:43:12;100536.88;;;13.34;67.01
80648;BME280;70012;0.000;0.000;2023-07-22T05:45:39;100504.94;;;13.28;67.25
80648;BME280;70012;0.000;0.000;2023-07-22T05:48:06;100533.16;;;13.56;67.11
80648;BME280;70012;0.000;0.000;2023-07-22T05:50:32;100524.38;;;13.64;66.35
80648;BME280;70012;0.000;0.000;2023-07-22T05:52:59;100525.59;;;13.94;67.11
80648;BME280;70012;0.000;0.000;2023-07-22T05:55:26;100519.84;;;14.21;66.42
80648;BME280;70012;0.000;0.000;2023-07-22T05:57:53;100521.25;;;14.55;66.41
80648;BME280;70012;0.000;0.000;2023-07-22T06:00:20;100522.31;;;15.05;64.27
80648;BME280;70012;0.000;0.000;2023-07-22T06:02:48;100538.25;;;15.24;62.79
80648;BME280;70012;0.000;0.000;2023-07-22T06:05:15;100533.66;;;15.75;61.66
80648;BME280;70012;0.000;0.000;2023-07-22T06:07:42;100541.34;;;15.78;62.96
80648;BME280;70012;0.000;0.000;2023-07-22T06:10:09;100540.31;;;15.63;61.19
80648;BME280;70012;0.000;0.000;2023-07-22T06:12:36;100535.78;;;15.93;61.44
80648;BME280;70012;0.000;0.000;2023-07-22T06:15:03;100538.50;;;15.98;61.39
80648;BME280;70012;0.000;0.000;2023-07-22T06:17:31;100553.16;;;16.39;60.02
80648;BME280;70012;0.000;0.000;2023-07-22T06:19:58;100559.09;;;16.56;59.38
80648;BME280;70012;0.000;0.000;2023-07-22T06:22:25;100555.50;;;16.95;57.65
80648;BME280;70012;0.000;0.000;2023-07-22T06:24:52;100549.31;;;17.04;57.49
80648;BME280;70012;0.000;0.000;2023-07-22T06:27:19;100549.03;;;17.29;56.66
80648;BME280;70012;0.000;0.000;2023-07-22T06:29:48;100545.13;;;17.36;57.58
80648;BME280;70012;0.000;0.000;2023-07-22T06:32:15;100533.06;;;17.70;55.36
80648;BME280;70012;0.000;0.000;2023-07-22T06:34:42;100513.03;;;18.35;52.89
80648;BME280;70012;0.000;0.000;2023-07-22T06:37:09;100533.44;;;18.59;52.82
80648;BME280;70012;0.000;0.000;2023-07-22T06:39:36;100525.47;;;18.71;52.22
80648;BME280;70012;0.000;0.000;2023-07-22T06:42:03;100538.38;;;18.62;52.70
80648;BME280;70012;0.000;0.000;2023-07-22T06:44:30;100536.09;;;18.50;52.24
80648;BME280;70012;0.000;0.000;2023-07-22T06:46:59;100534.88;;;18.56;51.70
80648;BME280;70012;0.000;0.000;2023-07-22T06:49:26;100529.66;;;18.35;52.34
80648;BME280;70012;0.000;0.000;2023-07-22T06:51:53;100541.22;;;18.56;51.62
80648;BME280;70012;0.000;0.000;2023-07-22T06:54:19;100535.28;;;18.49;50.24
80648;BME280;70012;0.000;0.000;2023-07-22T06:56:46;100535.28;;;18.49;49.16
80648;BME280;70012;0.000;0.000;2023-07-22T06:59:13;100534.50;;;18.63;50.84
80648;BME280;70012;0.000;0.000;2023-07-22T07:01:39;100539.09;;;18.67;49.26
80648;BME280;70012;0.000;0.000;2023-07-22T07:04:07;100541.41;;;18.79;49.58
80648;BME280;70012;0.000;0.000;2023-07-22T07:06:35;100539.06;;;18.86;48.83
80648;BME280;70012;0.000;0.000;2023-07-22T07:09:02;100534.31;;;19.06;48.75
80648;BME280;70012;0.000;0.000;2023-07-22T07:11:29;100549.03;;;19.20;47.87
80648;BME280;70012;0.000;0.000;2023-07-22T07:13:56;100541.44;;;19.26;48.03
80648;BME280;70012;0.000;0.000;2023-07-22T07:18:52;100548.41;;;19.51;46.48
80648;BME280;70012;0.000;0.000;2023-07-22T07:21:19;100548.22;;;19.62;46.23
80648;BME280;70012;0.000;0.000;2023-07-22T07:23:47;100552.13;;;19.61;45.08
80648;BME280;70012;0.000;0.000;2023-07-22T07:26:14;100541.00;;;19.61;47.40
80648;BME280;70012;0.000;0.000;2023-07-22T07:28:41;100550.25;;;19.70;47.08
80648;BME280;70012;0.000;0.000;2023-07-22T07:31:08;100530.31;;;19.68;46.87
80648;BME280;70012;0.000;0.000;2023-07-22T07:33:35;100542.81;;;19.79;46.58
80648;BME280;70012;0.000;0.000;2023-07-22T07:36:03;100541.28;;;19.87;46.00
80648;BME280;70012;0.000;0.000;2023-07-22T07:38:30;100546.44;;;19.94;45.76
80648;BME280;70012;0.000;0.000;2023-07-22T07:40:59;100545.72;;;20.02;46.06
80648;BME280;70012;0.000;0.000;2023-07-22T07:43:26;100538.81;;;19.99;45.30
80648;BME280;70012;0.000;0.000;2023-07-22T07:46:25;100538.63;;;19.96;46.05
80648;BME280;70012;0.000;0.000;2023-07-22T07:48:55;100539.22;;;19.93;46.85
80648;BME280;70012;0.000;0.000;2023-07-22T07:51:23;100534.19;;;19.95;47.22
80648;BME280;70012;0.000;0.000;2023-07-22T07:53:51;100538.81;;;19.99;46.34
80648;BME280;70012;0.000;0.000;2023-07-22T07:56:19;100547.97;;;20.00;44.64
80648;BME280;70012;0.000;0.000;2023-07-22T07:58:47;100533.16;;;20.05;46.07
80648;BME280;70012;0.000;0.000;2023-07-22T08:01:15;100536.72;;;20.05;45.48
80648;BME280;70012;0.000;0.000;2023-07-22T08:03:43;100530.25;;;20.10;44.57
80648;BME280;70012;0.000;0.000;2023-07-22T08:06:11;100534.59;;;20.25;44.74
80648;BME280;70012;0.000;0.000;2023-07-22T08:08:38;100524.63;;;20.46;45.78
80648;BME280;70012;0.000;0.000;2023-07-22T08:11:08;100529.59;;;20.50;41.52
80648;BME280;70012;0.000;0.000;2023-07-22T08:13:36;100530.44;;;20.59;40.88
80648;BME280;70012;0.000;0.000;2023-07-22T08:16:05;100525.91;;;20.63;40.00
80648;BME280;70012;0.000;0.000;2023-07-22T08:18:33;100527.31;;;20.74;40.33
80648;BME280;70012;0.000;0.000;2023-07-22T08:21:02;100530.31;;;20.87;40.22
80648;BME280;70012;0.000;0.000;2023-07-22T08:23:30;100519.56;;;20.94;40.01
80648;BME280;70012;0.000;0.000;2023-07-22T08:25:57;100523.66;;;20.97;39.54
80648;BME280;70012;0.000;0.000;2023-07-22T08:28:24;100529.22;;;20.97;39.37
80648;BME280;70012;0.000;0.000;2023-07-22T08:30:54;100530.88;;;20.98;37.89
80648;BME280;70012;0.000;0.000;2023-07-22T08:33:23;100528.91;;;20.98;36.35
80648;BME280;70012;0.000;0.000;2023-07-22T08:36:06;100522.88;;;20.96;38.16
80648;BME280;70012;0.000;0.000;2023-07-22T08:38:33;100525.13;;;20.94;37.27
80648;BME280;70012;0.000;0.000;2023-07-22T08:41:00;100520.84;;;20.88;37.35
80648;BME280;70012;0.000;0.000;2023-07-22T08:43:30;100529.69;;;20.90;37.65
80648;BME280;70012;0.000;0.000;2023-07-22T08:46:00;100524.63;;;20.92;37.34
80648;BME280;70012;0.000;0.000;2023-07-22T08:48:30;100524.50;;;20.97;37.13
80648;BME280;70012;0.000;0.000;2023-07-22T08:51:16;100532.72;;;21.02;38.31
80648;BME280;70012;0.000;0.000;2023-07-22T08:53:45;100523.59;;;21.10;39.86
80648;BME280;70012;0.000;0.000;2023-07-22T08:56:26;100527.22;;;21.20;38.21
80648;BME280;70012;0.000;0.000;2023-07-22T08:58:54;100526.44;;;21.28;38.14
80648;BME280;70012;0.000;0.000;2023-07-22T09:01:21;100530.03;;;21.28;38.63
80648;BME280;70012;0.000;0.000;2023-07-22T09:03:49;100517.72;;;21.21;35.16
80648;BME280;70012;0.000;0.000;2023-07-22T09:06:19;100515.09;;;21.16;35.20
80648;BME280;70012;0.000;0.000;2023-07-22T09:08:46;100519.38;;;21.22;33.47
80648;BME280;70012;0.000;0.000;2023-07-22T09:11:13;100520.34;;;21.26;33.96
80648;BME280;70012;0.000;0.000;2023-07-22T09:13:41;100514.16;;;21.29;34.39
80648;BME280;70012;0.000;0.000;2023-07-22T09:16:11;100515.81;;;21.30;34.13
80648;BME280;70012;0.000;0.000;2023-07-22T09:18:39;100516.44;;;21.27;34.91
80648;BME280;70012;0.000;0.000;2023-07-22T09:21:06;100514.22;;;21.47;35.16
80648;BME280;70012;0.000;0.000;2023-07-22T09:23:34;100509.19;;;21.66;35.58
80648;BME280;70012;0.000;0.000;2023-07-22T09:26:11;100508.75;;;21.82;35.95
80648;BME280;70012;0.000;0.000;2023-07-22T09:31:20;100514.50;;;22.12;36.04
80648;BME280;70012;0.000;0.000;2023-07-22T09:33:48;100510.09;;;22.11;35.46
80648;BME280;70012;0.000;0.000;2023-07-22T09:36:15;100513.50;;;21.99;34.64
80648;BME280;70012;0.000;0.000;2023-07-22T09:38:42;100512.69;;;21.98;35.15
80648;BME280;70012;0.000;0.000;2023-07-22T09:41:09;100520.75;;;22.00;34.25
80648;BME280;70012;0.000;0.000;2023-07-22T09:43:37;100508.44;;;22.10;34.15
80648;BME280;70012;0.000;0.000;2023-07-22T09:46:08;100504.97;;;22.21;33.78
80648;BME280;70012;0.000;0.000;2023-07-22T09:48:44;100505.63;;;22.36;32.96
80648;BME280;70012;0.000;0.000;2023-07-22T09:51:13;100504.16;;;22.56;35.24
80648;BME280;70012;0.000;0.000;2023-07-22T09:53:45;100491.69;;;22.62;34.71
80648;BME280;70012;0.000;0.000;2023-07-22T09:56:12;100499.91;;;22.59;34.01
80648;BME280;70012;0.000;0.000;2023-07-22T09:58:39;100498.44;;;22.52;34.44
80648;BME280;70012;0.000;0.000;2023-07-22T10:01:07;100501.09;;;22.40;34.71
80648;BME280;70012;0.000;0.000;2023-07-22T10:03:37;100496.31;;;22.41;35.33
80648;BME280;70012;0.000;0.000;2023-07-22T10:06:05;100496.13;;;22.54;34.17
80648;BME280;70012;0.000;0.000;2023-07-22T10:08:34;100490.66;;;22.76;33.01
80648;BME280;70012;0.000;0.000;2023-07-22T10:11:05;100485.31;;;23.00;32.68
80648;BME280;70012;0.000;0.000;2023-07-22T10:13:35;100497.72;;;23.29;31.89
80648;BME280;70012;0.000;0.000;2023-07-22T10:16:02;100488.34;;;23.55;30.51
80648;BME280;70012;0.000;0.000;2023-07-22T10:18:30;100486.22;;;23.82;30.92
80648;BME280;70012;0.000;0.000;2023-07-22T10:20:58;100486.78;;;23.96;32.15
80648;BME280;70012;0.000;0.000;2023-07-22T10:23:26;100481.94;;;24.06;31.26
80648;BME280;70012;0.000;0.000;2023-07-22T10:25:53;100484.09;;;24.21;31.36
80648;BME280;70012;0.000;0.000;2023-07-22T10:28:21;100483.94;;;24.39;31.25
80648;BME280;70012;0.000;0.000;2023-07-22T10:30:48;100493.06;;;24.48;30.80
80648;BME280;70012;0.000;0.000;2023-07-22T10:33:16;100483.38;;;24.45;29.59
80648;BME280;70012;0.000;0.000;2023-07-22T10:35:43;100478.53;;;24.55;28.21
80648;BME280;70012;0.000;0.000;2023-07-22T10:38:27;100474.66;;;24.59;27.41
80648;BME280;70012;0.000;0.000;2023-07-22T10:40:54;100461.44;;;24.69;27.03
80648;BME280;70012;0.000;0.000;2023-07-22T10:43:26;100468.13;;;24.55;27.51
80648;BME280;70012;0.000;0.000;2023-07-22T10:45:55;100466.50;;;24.54;28.08
80648;BME280;70012;0.000;0.000;2023-07-22T10:48:26;100467.72;;;24.66;28.82
80648;BME280;70012;0.000;0.000;2023-07-22T10:50:58;100456.09;;;24.76;27.62
80648;BME280;70012;0.000;0.000;2023-07-22T10:58:54;100454.44;;;24.75;27.48
80648;BME280;70012;0.000;0.000;2023-07-22T11:09:33;100450.84;;;25.36;25.15
80648;BME280;70012;0.000;0.000;2023-07-22T11:12:04;100453.78;;;25.28;24.28
80648;BME280;70012;0.000;0.000;2023-07-22T11:14:35;100450.53;;;25.25;26.36
80648;BME280;70012;0.000;0.000;2023-07-22T11:17:05;100448.66;;;25.30;24.92
80648;BME280;70012;0.000;0.000;2023-07-22T11:19:35;100447.00;;;25.53;25.36
80648;BME280;70012;0.000;0.000;2023-07-22T11:22:02;100438.56;;;25.66;25.62
80648;BME280;70012;0.000;0.000;2023-07-22T11:24:29;100436.91;;;25.77;24.90
80648;BME280;70012;0.000;0.000;2023-07-22T11:26:56;100422.97;;;25.93;24.27
80648;BME280;70012;0.000;0.000;2023-07-22T11:29:22;100437.72;;;26.06;25.22
80648;BME280;70012;0.000;0.000;2023-07-22T11:31:50;100436.06;;;25.77;24.88
80648;BME280;70012;0.000;0.000;2023-07-22T11:34:20;100439.53;;;25.57;25.20
80648;BME280;70012;0.000;0.000;2023-07-22T11:36:48;100431.97;;;25.46;26.05
80648;BME280;70012;0.000;0.000;2023-07-22T11:39:17;100429.25;;;25.62;25.34
80648;BME280;70012;0.000;0.000;2023-07-22T11:41:45;100416.13;;;25.78;26.08
80648;BME280;70012;0.000;0.000;2023-07-22T11:44:14;100427.03;;;25.96;26.41
80648;BME280;70012;0.000;0.000;2023-07-22T11:46:54;100416.72;;;26.12;26.03
80648;BME280;70012;0.000;0.000;2023-07-22T11:49:47;100415.22;;;26.31;26.41
80648;BME280;70012;0.000;0.000;2023-07-22T11:52:24;100411.19;;;26.60;24.79
80648;BME280;70012;0.000;0.000;2023-07-22T11:54:52;100412.38;;;26.75;24.43
80648;BME280;70012;0.000;0.000;2023-07-22T11:57:20;100406.94;;;26.98;24.30
80648;BME280;70012;0.000;0.000;2023-07-22T11:59:52;100402.22;;;27.03;23.13
80648;BME280;70012;0.000;0.000;2023-07-22T12:02:21;100402.66;;;27.05;23.65
80648;BME280;70012;0.000;0.000;2023-07-22T12:05:21;100416.88;;;26.64;23.41
80648;BME280;70012;0.000;0.000;2023-07-22T12:07:47;100411.97;;;26.61;23.62
80648;BME280;70012;0.000;0.000;2023-07-22T12:10:15;100406.56;;;26.84;26.14
80648;BME280;70012;0.000;0.000;2023-07-22T12:12:44;100398.94;;;27.16;24.68
80648;BME280;70012;0.000;0.000;2023-07-22T12:15:20;100405.34;;;27.17;23.20
80648;BME280;70012;0.000;0.000;2023-07-22T12:20:40;100393.16;;;27.09;23.04
80648;BME280;70012;0.000;0.000;2023-07-22T12:23:06;100402.97;;;26.83;23.08
80648;BME280;70012;0.000;0.000;2023-07-22T12:25:33;100390.56;;;26.84;23.23
80648;BME280;70012;0.000;0.000;2023-07-22T12:27:59;100399.97;;;26.76;23.36
80648;BME280;70012;0.000;0.000;2023-07-22T12:30:26;100398.69;;;26.90;24.11
80648;BME280;70012;0.000;0.000;2023-07-22T12:32:54;100379.38;;;27.04;25.04
80648;BME280;70012;0.000;0.000;2023-07-22T12:35:21;100382.78;;;27.13;23.61
80648;BME280;70012;0.000;0.000;2023-07-22T12:37:48;100384.34;;;27.11;22.93
80648;BME280;70012;0.000;0.000;2023-07-22T12:40:15;100393.41;;;27.20;24.71
80648;BME280;70012;0.000;0.000;2023-07-22T12:42:41;100379.81;;;26.74;23.38
80648;BME280;70012;0.000;0.000;2023-07-22T12:45:08;100374.59;;;26.73;24.30
80648;BME280;70012;0.000;0.000;2023-07-22T12:47:35;100385.22;;;26.79;23.89
80648;BME280;70012;0.000;0.000;2023-07-22T12:50:05;100384.47;;;26.82;23.27
80648;BME280;70012;0.000;0.000;2023-07-22T12:52:31;100383.59;;;26.78;23.17
80648;BME280;70012;0.000;0.000;2023-07-22T12:54:58;100385.28;;;26.99;23.29
80648;BME280;70012;0.000;0.000;2023-07-22T12:57:25;100374.06;;;26.83;23.07
80648;BME280;70012;0.000;0.000;2023-07-22T12:59:51;100378.78;;;26.79;23.74
80648;BME280;70012;0.000;0.000;2023-07-22T13:02:18;100375.22;;;26.98;25.12
80648;BME280;70012;0.000;0.000;2023-07-22T13:04:45;100374.81;;;27.15;24.17
80648;BME280;70012;0.000;0.000;2023-07-22T13:07:12;100376.28;;;27.09;24.09
80648;BME280;70012;0.000;0.000;2023-07-22T13:09:39;100378.97;;;27.22;23.67
80648;BME280;70012;0.000;0.000;2023-07-22T13:12:06;100365.72;;;27.38;24.33
80648;BME280;70012;0.000;0.000;2023-07-22T13:14:33;100364.19;;;27.60;23.76
80648;BME280;70012;0.000;0.000;2023-07-22T13:17:01;100363.25;;;27.72;23.49
80648;BME280;70012;0.000;0.000;2023-07-22T13:19:28;100340.75;;;27.72;23.03
80648;BME280;70012;0.000;0.000;2023-07-22T13:21:54;100361.00;;;27.62;24.02
80648;BME280;70012;0.000;0.000;2023-07-22T13:24:21;100355.97;;;27.52;23.47
80648;BME280;70012;0.000;0.000;2023-07-22T13:26:48;100353.97;;;27.52;23.00